Waban, MA (02468)

5:27 AM EST on December 19, 2014 (GMT -0500)
Waban MA | Change Station
CLOSE
Current Station
Personal Weather Station
Location: Waban, MA
Elevation: 142 ft
Nearby Weather Stations

Elev 142 ft 42.33 °N, 71.22 °W | Updated 16 seconds ago

Mostly Cloudy
Mostly Cloudy
32.1 °F
Feels Like 32 °F
N
0.0
Wind Variable Wind from North
Gusts 0.0 mph

Today
High -- | Low -- °F
--% Chance of Precip.
Yesterday
High -- | Low -- °F
Precip. -- in
7:09 AM 4:14 PM
Waning Crescent, 8% visible
Pressure 29.88 in
Visibility 10.0 miles
Clouds Few 5500 ft
Windchill 32 °F
Dew Point 27 °F
Humidity 82%
Rainfall 0.00 in
Snow Depth Not available.
UV 0 out of 12
Pollen .10 out of 12
Air Quality Not available.
Flu Activity Not available.
METAR KOWD 190953Z AUTO 00000KT 10SM FEW055 M01/M03 A2988 RMK AO2 SLP118 T10111033

More Conditions Fewer Conditions

Pressure 29.88 in
Visibility 10.0 miles
Clouds Few 5500 ft
Windchill 32 °F
Dew Point 27 °F
Humidity 82%
Rainfall 0.00 in
Snow Depth Not available.
UV 0 out of 12
Pollen .10 out of 12
Air Quality Not available.
Flu Activity Not available.
METAR KOWD 190953Z AUTO 00000KT 10SM FEW055 M01/M03 A2988 RMK AO2 SLP118 T10111033

More Conditions Fewer Conditions

10-Day Weather Forecast

Almanac

Astronomy

Dec. 19, 2014 Rise Set
Actual Time
Civil Twilight
Nautical Twilight
Astronomical Twilight
Moon
Length of Visible Light
Length of Day
Tomorrow will be .
, % of the Moon is Illuminated

Today's Extremes

State Highs State Lows

Community

WunderPhotos

Upload Photos

1,778,966 photos uploaded!

WunderBlogs® & News

Nearby

Air Quality

  Air Quality AQ Index Pollutant
Not available.

Snow Depth

Station Depth Elevation

Earthquake Activity

City Distance Mag. Time & Date
Minimum magnitude displayed is 2.5.

Coastal Water Temperatures

Place Temperature

Nearby Weather Stations